createdAt,value
2023-04-25T00:00:51.394Z,12.03
2023-04-25T00:03:59.381Z,12.04
2023-04-25T00:07:03.504Z,12.04
2023-04-25T00:10:08.637Z,12.01
2023-04-25T00:13:12.583Z,11.95
2023-04-25T00:16:16.779Z,11.87
2023-04-25T00:19:21.036Z,11.81
2023-04-25T00:22:24.982Z,11.79
2023-04-25T00:25:29.014Z,11.81
2023-04-25T00:28:33.057Z,11.85
2023-04-25T00:31:37.076Z,11.90
2023-04-25T00:34:41.208Z,11.93
2023-04-25T00:37:45.902Z,11.93
2023-04-25T00:40:49.843Z,11.92
2023-04-25T00:43:55.764Z,11.88
2023-04-25T00:47:01.653Z,11.82
2023-04-25T00:50:06.761Z,11.75
2023-04-25T00:53:11.122Z,11.67
2023-04-25T00:56:15.539Z,11.64
2023-04-25T00:59:20.526Z,11.64
2023-04-25T01:02:24.843Z,11.60
2023-04-25T01:05:29.007Z,11.58
2023-04-25T01:08:32.979Z,11.55
2023-04-25T01:11:37.359Z,11.51
2023-04-25T01:14:41.475Z,11.50
2023-04-25T01:17:46.077Z,11.46
2023-04-25T01:20:52.980Z,11.43
2023-04-25T01:23:58.699Z,11.39
2023-04-25T01:27:03.398Z,11.36
2023-04-25T01:30:08.597Z,11.33
2023-04-25T01:33:16.637Z,11.33
2023-04-25T01:36:22.557Z,11.33
2023-04-25T01:39:26.913Z,11.32
2023-04-25T01:42:30.929Z,11.28
2023-04-25T01:45:37.413Z,11.25
2023-04-25T01:48:41.419Z,11.25
2023-04-25T01:51:45.416Z,11.26
2023-04-25T01:54:52.022Z,11.25
2023-04-25T01:57:56.125Z,11.26
2023-04-25T02:01:08.973Z,11.26
2023-04-25T02:04:17.597Z,11.24
2023-04-25T02:07:22.225Z,11.20
2023-04-25T02:10:29.701Z,11.20
2023-04-25T02:13:55.520Z,11.21
2023-04-25T02:17:14.868Z,11.21
2023-04-25T02:20:19.319Z,11.20
2023-04-25T02:23:23.326Z,11.19
2023-04-25T02:26:27.991Z,11.19
2023-04-25T02:29:31.905Z,11.16
2023-04-25T02:32:36.353Z,11.13
2023-04-25T02:35:40.310Z,11.14
2023-04-25T02:38:44.351Z,11.14
2023-04-25T02:41:48.240Z,11.15
2023-04-25T02:44:52.123Z,11.12
2023-04-25T02:47:56.193Z,11.09
2023-04-25T02:51:00.155Z,11.08
2023-04-25T02:54:04.441Z,11.11
2023-04-25T02:57:10.584Z,11.18
2023-04-25T03:00:15.364Z,11.26
2023-04-25T03:03:22.747Z,11.35
2023-04-25T03:06:27.245Z,11.42
2023-04-25T03:09:31.344Z,11.47
2023-04-25T03:12:35.379Z,11.51
2023-04-25T03:15:40.010Z,11.57
2023-04-25T03:18:44.845Z,11.65
2023-04-25T03:21:49.582Z,11.72
2023-04-25T03:24:53.604Z,11.79
2023-04-25T03:27:57.610Z,11.83
2023-04-25T03:31:01.850Z,11.86
2023-04-25T03:34:05.830Z,11.88
2023-04-25T03:37:09.870Z,11.93
2023-04-25T03:40:15.709Z,11.97
2023-04-25T03:43:37.011Z,12.04
2023-04-25T03:46:43.096Z,12.10
2023-04-25T03:49:47.036Z,12.14
2023-04-25T03:52:51.551Z,12.19
2023-04-25T03:55:55.966Z,12.23
2023-04-25T03:58:59.991Z,12.27
2023-04-25T04:02:04.756Z,12.28
2023-04-25T04:05:11.492Z,12.27
2023-04-25T04:08:19.718Z,12.28
2023-04-25T04:11:23.731Z,12.31
2023-04-25T04:14:27.659Z,12.35
2023-04-25T04:17:33.026Z,12.37
2023-04-25T04:20:37.309Z,12.38
2023-04-25T04:23:41.953Z,12.38
2023-04-25T04:26:47.390Z,12.37
2023-04-25T04:30:11.150Z,12.38
2023-04-25T04:33:24.529Z,12.37
2023-04-25T04:36:34.580Z,12.38
2023-04-25T04:39:38.635Z,12.38
2023-04-25T04:42:57.568Z,12.35
2023-04-25T04:46:17.492Z,12.28
2023-04-25T04:49:48.020Z,12.25
2023-04-25T04:53:08.450Z,12.25
2023-04-25T04:56:15.351Z,12.26
2023-04-25T04:59:28.388Z,12.25
2023-04-25T05:02:51.428Z,12.20
2023-04-25T05:06:07.598Z,12.14
2023-04-25T05:09:26.936Z,12.11
2023-04-25T05:12:49.887Z,12.11
2023-04-25T05:16:21.350Z,12.15
2023-04-25T05:19:45.950Z,12.07
2023-04-25T05:23:12.196Z,12.04
2023-04-25T05:26:19.277Z,12.05
2023-04-25T05:29:41.839Z,12.08
2023-04-25T05:33:02.729Z,12.07
2023-04-25T05:36:08.297Z,12.07
2023-04-25T05:39:13.216Z,12.09
2023-04-25T05:42:46.847Z,12.04
2023-04-25T05:46:03.691Z,12.00
2023-04-25T05:49:32.350Z,12.00
2023-04-25T05:52:57.446Z,12.00
2023-04-25T05:56:05.775Z,12.01
2023-04-25T05:59:09.703Z,11.97
2023-04-25T06:02:13.900Z,11.94
2023-04-25T06:05:19.374Z,11.94
2023-04-25T06:08:24.384Z,11.93
2023-04-25T06:11:28.397Z,11.93
2023-04-25T06:14:32.520Z,11.93
2023-04-25T06:17:37.038Z,11.94
2023-04-25T06:20:41.476Z,11.94
2023-04-25T06:23:45.509Z,11.95
2023-04-25T06:26:56.267Z,11.96
2023-04-25T06:30:00.778Z,11.98
2023-04-25T06:33:05.155Z,12.02
2023-04-25T06:36:09.523Z,11.98
2023-04-25T06:39:14.708Z,11.97
2023-04-25T06:42:18.765Z,11.95
2023-04-25T06:45:35.925Z,11.97
2023-04-25T06:48:39.953Z,11.95
2023-04-25T06:51:44.159Z,11.92
2023-04-25T06:54:48.181Z,11.84
2023-04-25T06:58:24.881Z,11.80
2023-04-25T07:01:42.002Z,11.85
2023-04-25T07:04:49.937Z,11.87
2023-04-25T07:07:54.155Z,11.89
2023-04-25T07:10:58.524Z,11.87
2023-04-25T07:14:03.082Z,11.90
2023-04-25T07:17:07.805Z,11.94
2023-04-25T07:20:12.328Z,12.00
2023-04-25T07:23:16.715Z,12.04
2023-04-25T07:26:20.993Z,12.03
2023-04-25T07:29:43.632Z,12.02
2023-04-25T07:32:48.005Z,11.99
2023-04-25T07:35:53.196Z,11.94
2023-04-25T07:38:57.575Z,11.87
2023-04-25T07:42:03.167Z,11.80
2023-04-25T07:45:08.735Z,11.76
2023-04-25T07:48:19.573Z,11.73
2023-04-25T07:51:23.886Z,11.76
2023-04-25T07:54:29.883Z,11.83
2023-04-25T07:57:39.635Z,11.92
2023-04-25T08:00:43.850Z,11.99
2023-04-25T08:03:57.504Z,11.99
2023-04-25T08:07:09.883Z,11.92
2023-04-25T08:10:24.162Z,11.82
2023-04-25T08:13:28.706Z,11.79
2023-04-25T08:16:32.968Z,11.80
2023-04-25T08:19:37.141Z,11.76
2023-04-25T08:22:41.558Z,11.69
2023-04-25T08:26:01.844Z,11.62
2023-04-25T08:29:07.300Z,11.56
2023-04-25T08:32:12.960Z,11.53
2023-04-25T08:35:19.562Z,11.52
2023-04-25T08:38:23.654Z,11.47
2023-04-25T09:25:59.710Z,11.48
2023-04-25T09:29:08.522Z,11.68
2023-04-25T09:32:23.563Z,11.70
2023-04-25T09:35:28.973Z,11.72
2023-04-25T09:38:46.217Z,11.71
2023-04-25T09:41:55.952Z,11.72
2023-04-25T09:45:03.459Z,11.70
2023-04-25T09:48:10.109Z,11.70
2023-04-25T09:51:15.581Z,11.69
2023-04-25T09:54:20.928Z,11.66
2023-04-25T09:57:27.301Z,11.65
2023-04-25T10:00:34.787Z,11.63
2023-04-25T10:03:45.720Z,11.63
2023-04-25T10:07:27.130Z,11.62
2023-04-25T10:10:37.137Z,11.61
2023-04-25T10:13:42.778Z,11.62
2023-04-25T10:16:48.413Z,11.61
2023-04-25T10:19:53.211Z,11.57
2023-04-25T10:22:59.527Z,11.53
2023-04-25T10:26:03.646Z,11.51
2023-04-25T10:29:07.615Z,11.48
2023-04-25T10:32:11.843Z,11.45
2023-04-25T10:35:25.077Z,11.46
2023-04-25T10:38:29.234Z,11.50
2023-04-25T10:41:47.262Z,11.55
2023-04-25T10:45:06.758Z,11.58
2023-04-25T10:48:29.918Z,11.60
2023-04-25T10:51:51.531Z,11.60
2023-04-25T10:54:59.614Z,11.62
2023-04-25T10:58:04.193Z,11.66
2023-04-25T11:01:08.779Z,11.67
2023-04-25T11:04:33.235Z,11.66
2023-04-25T11:08:06.513Z,11.65
2023-04-25T11:11:21.909Z,11.66
2023-04-25T11:14:26.251Z,11.65
2023-04-25T11:17:31.115Z,11.71
2023-04-25T11:20:35.162Z,11.77
2023-04-25T11:23:39.293Z,11.80
2023-04-25T11:26:44.433Z,11.82
2023-04-25T11:29:49.193Z,11.82
2023-04-25T11:32:54.044Z,11.81
2023-04-25T11:35:59.050Z,11.83
2023-04-25T11:39:03.174Z,11.84
2023-04-25T11:42:07.652Z,11.87
2023-04-25T11:45:14.373Z,11.92
2023-04-25T11:48:26.190Z,11.95
2023-04-25T11:51:48.536Z,11.99
2023-04-25T11:54:52.553Z,12.00
2023-04-25T11:57:56.803Z,11.94
2023-04-25T12:01:00.798Z,11.91
2023-04-25T12:04:17.101Z,11.91
2023-04-25T12:07:23.953Z,11.93
2023-04-25T12:10:27.893Z,11.96
2023-04-25T12:13:32.805Z,11.98
2023-04-25T12:16:47.359Z,12.00
2023-04-25T12:19:51.588Z,11.99
2023-04-25T12:22:56.750Z,11.96
2023-04-25T12:26:03.810Z,11.95
2023-04-25T12:29:20.437Z,11.94
2023-04-25T12:32:25.162Z,11.94
2023-04-25T12:35:29.164Z,11.92
2023-04-25T12:38:37.799Z,11.91
2023-04-25T12:41:41.820Z,11.88
2023-04-25T12:44:46.345Z,11.85
2023-04-25T12:47:50.401Z,11.82
2023-04-25T12:50:54.581Z,11.79
2023-04-25T12:53:58.597Z,11.76
2023-04-25T12:57:04.078Z,11.74
2023-04-25T13:00:11.241Z,11.79
2023-04-25T13:03:15.656Z,11.86
2023-04-25T13:06:21.522Z,11.90
2023-04-25T13:09:25.676Z,11.90
2023-04-25T13:12:29.757Z,11.92
2023-04-25T13:15:33.718Z,11.91
2023-04-25T13:18:38.113Z,11.87
2023-04-25T13:21:42.112Z,11.88
2023-04-25T13:24:46.126Z,11.86
2023-04-25T13:27:50.445Z,11.80
2023-04-25T13:30:54.963Z,11.75
2023-04-25T13:33:58.903Z,11.76
2023-04-25T13:37:02.911Z,11.77
2023-04-25T13:40:11.257Z,11.75
2023-04-25T13:43:15.442Z,11.76
2023-04-25T13:49:26.651Z,11.75
2023-04-25T13:52:30.867Z,11.75
2023-04-25T13:55:37.142Z,11.73
2023-04-25T13:58:41.197Z,11.73
2023-04-25T14:01:45.803Z,11.74
2023-04-25T14:04:49.866Z,11.74
2023-04-25T14:07:54.026Z,11.71
2023-04-25T14:10:58.037Z,11.71
2023-04-25T14:14:02.158Z,11.74
2023-04-25T14:17:07.401Z,11.77
2023-04-25T14:20:12.640Z,11.79
2023-04-25T14:23:16.961Z,11.80
2023-04-25T14:26:20.935Z,11.83
2023-04-25T14:29:24.900Z,11.88
2023-04-25T14:32:28.978Z,11.90
2023-04-25T14:35:33.070Z,11.92
2023-04-25T14:38:37.026Z,11.95
2023-04-25T14:41:41.284Z,11.96
2023-04-25T14:44:45.232Z,12.00
2023-04-25T14:47:49.615Z,12.04
2023-04-25T14:50:53.726Z,12.08
2023-04-25T14:53:59.082Z,12.09
2023-04-25T14:57:03.394Z,12.10
2023-04-25T15:00:10.377Z,12.10
2023-04-25T15:03:14.622Z,12.11
2023-04-25T15:06:19.073Z,12.10
2023-04-25T15:09:24.986Z,12.07
2023-04-25T15:12:29.532Z,12.03
2023-04-25T15:15:33.530Z,11.96
2023-04-25T15:18:37.552Z,11.85
2023-04-25T15:21:41.550Z,11.74
2023-04-25T15:24:45.568Z,11.66
2023-04-25T15:27:50.614Z,11.57
2023-04-25T15:30:54.760Z,11.52
2023-04-25T15:33:58.762Z,11.46
2023-04-25T15:37:02.770Z,11.41
2023-04-25T15:40:10.059Z,11.32
2023-04-25T15:43:16.343Z,11.25
2023-04-25T15:46:22.114Z,11.23
2023-04-25T15:49:26.317Z,11.23
2023-04-25T15:52:30.424Z,11.23
2023-04-25T15:55:35.067Z,11.25
2023-04-25T15:58:38.991Z,11.23
2023-04-25T16:01:43.332Z,11.18
2023-04-25T16:04:48.125Z,11.12
2023-04-25T16:07:53.958Z,11.07
2023-04-25T16:10:58.011Z,11.00
2023-04-25T16:14:01.989Z,10.86
2023-04-25T16:17:05.929Z,10.74
2023-04-25T16:20:12.538Z,10.66
2023-04-25T16:23:16.632Z,10.59
2023-04-25T16:26:20.602Z,10.52
2023-04-25T16:29:24.658Z,10.43
2023-04-25T16:32:28.784Z,10.36
2023-04-25T16:35:32.776Z,10.28
2023-04-25T16:38:39.799Z,10.14
2023-04-25T16:41:44.096Z,10.00
2023-04-25T16:44:48.116Z,9.94
2023-04-25T16:47:52.019Z,9.92
2023-04-25T16:50:56.874Z,9.87
2023-04-25T16:54:01.381Z,9.84
2023-04-25T16:57:05.710Z,9.76
2023-04-25T17:00:10.789Z,9.69
2023-04-25T17:03:15.059Z,9.67
2023-04-25T17:06:19.210Z,9.67
2023-04-25T17:09:23.309Z,9.65
2023-04-25T17:12:27.286Z,9.62
2023-04-25T17:15:34.190Z,9.59
2023-04-25T17:18:38.970Z,9.55
2023-04-25T17:21:43.045Z,9.50
2023-04-25T17:24:47.020Z,9.45
2023-04-25T17:27:51.486Z,9.43
2023-04-25T17:30:56.167Z,9.44
2023-04-25T17:34:00.186Z,9.38
2023-04-25T17:37:04.174Z,9.33
2023-04-25T17:40:12.107Z,9.31
2023-04-25T17:43:16.333Z,9.27
2023-04-25T17:46:21.410Z,9.23
2023-04-25T17:49:25.536Z,9.22
2023-04-25T17:52:29.538Z,9.26
2023-04-25T17:55:33.686Z,9.30
2023-04-25T17:58:37.617Z,9.29
2023-04-25T18:01:45.690Z,9.27
2023-04-25T18:04:52.406Z,9.23
2023-04-25T18:07:56.574Z,9.20
2023-04-25T18:11:00.622Z,9.18
2023-04-25T18:14:04.655Z,9.17
2023-04-25T18:17:09.078Z,9.17
2023-04-25T18:20:17.394Z,9.19
2023-04-25T18:23:22.018Z,9.19
2023-04-25T18:26:25.886Z,9.17
2023-04-25T18:29:33.503Z,9.14
2023-04-25T18:32:38.256Z,9.16
2023-04-25T18:35:51.518Z,9.18
2023-04-25T18:39:15.512Z,9.20
2023-04-25T18:42:26.372Z,9.21
2023-04-25T18:45:30.421Z,9.21
2023-04-25T18:48:34.385Z,9.20
2023-04-25T18:51:38.409Z,9.19
2023-04-25T18:54:42.928Z,9.20
2023-04-25T18:57:47.046Z,9.23
2023-04-25T19:00:51.185Z,9.24
2023-04-25T19:03:58.771Z,9.25
2023-04-25T19:07:04.370Z,9.24
2023-04-25T19:10:09.388Z,9.20
2023-04-25T19:13:13.776Z,9.17
2023-04-25T19:16:19.003Z,9.17
2023-04-25T19:19:23.141Z,9.21
2023-04-25T19:22:27.576Z,9.24
2023-04-25T19:25:32.303Z,9.23
2023-04-25T19:28:36.642Z,9.20
2023-04-25T19:31:42.705Z,9.18
2023-04-25T19:34:46.997Z,9.17
2023-04-25T19:37:50.980Z,9.19
2023-04-25T19:40:54.968Z,9.22
2023-04-25T19:44:04.773Z,9.26
2023-04-25T19:47:08.804Z,9.27
2023-04-25T19:50:13.009Z,9.25
2023-04-25T19:53:17.053Z,9.23
2023-04-25T19:56:22.058Z,9.21
2023-04-25T19:59:26.205Z,9.20
2023-04-25T20:02:30.535Z,9.22
2023-04-25T20:05:34.647Z,9.24
2023-04-25T20:08:38.859Z,9.26
2023-04-25T20:11:42.876Z,9.27
2023-04-25T20:14:46.780Z,9.24
2023-04-25T20:17:50.814Z,9.20
2023-04-25T20:20:54.795Z,9.22
2023-04-25T20:24:01.416Z,9.25
2023-04-25T20:27:05.621Z,9.28
2023-04-25T20:30:12.027Z,9.30
2023-04-25T20:33:16.178Z,9.29
2023-04-25T20:36:20.225Z,9.24
2023-04-25T20:39:24.259Z,9.24
2023-04-25T20:42:28.249Z,9.26
2023-04-25T20:45:34.582Z,9.27
2023-04-25T20:48:38.619Z,9.31
2023-04-25T20:51:42.972Z,9.33
2023-04-25T20:54:50.841Z,9.33
2023-04-25T20:57:54.993Z,9.33
2023-04-25T21:00:58.992Z,9.35
2023-04-25T21:04:03.310Z,9.38
2023-04-25T21:07:07.758Z,9.40
2023-04-25T21:10:13.018Z,9.38
2023-04-25T21:13:17.559Z,9.35
2023-04-25T21:16:21.673Z,9.34
2023-04-25T21:19:25.644Z,9.34
2023-04-25T21:22:29.588Z,9.33
2023-04-25T21:25:33.963Z,9.30
2023-04-25T21:28:38.021Z,9.29
2023-04-25T21:31:42.504Z,9.33
2023-04-25T21:34:46.409Z,9.33
2023-04-25T21:37:50.867Z,9.31
2023-04-25T21:40:54.892Z,9.27
2023-04-25T21:43:58.920Z,9.26
2023-04-25T21:47:04.597Z,9.25
2023-04-25T21:50:10.244Z,9.26
2023-04-25T21:53:14.193Z,9.29
2023-04-25T21:56:18.157Z,9.28
2023-04-25T21:59:24.853Z,9.27
2023-04-25T22:02:31.222Z,9.25
2023-04-25T22:05:35.508Z,9.26
2023-04-25T22:08:39.425Z,9.26
2023-04-25T22:11:43.387Z,9.28
2023-04-25T22:14:47.569Z,9.25
2023-04-25T22:17:54.066Z,9.22
2023-04-25T22:20:58.268Z,9.15
2023-04-25T22:24:02.786Z,9.12
2023-04-25T22:27:06.818Z,9.11
2023-04-25T22:30:14.416Z,9.13
2023-04-25T22:33:18.423Z,9.11
2023-04-25T22:36:24.101Z,9.04
2023-04-25T22:39:28.321Z,8.99
2023-04-25T22:42:38.557Z,8.97
2023-04-25T22:45:42.902Z,8.97
2023-04-25T22:48:48.214Z,8.98
2023-04-25T22:51:55.728Z,8.95
2023-04-25T22:54:59.696Z,8.91
2023-04-25T22:58:04.869Z,8.84
2023-04-25T23:01:09.012Z,8.79
2023-04-25T23:04:13.358Z,8.72
2023-04-25T23:07:18.571Z,8.68
2023-04-25T23:10:22.601Z,8.63
2023-04-25T23:13:26.617Z,8.59
2023-04-25T23:16:30.683Z,8.54
2023-04-25T23:19:35.011Z,8.54
2023-04-25T23:22:39.573Z,8.60
2023-04-25T23:25:43.779Z,8.66
2023-04-25T23:28:47.916Z,8.69
2023-04-25T23:31:51.827Z,8.65
2023-04-25T23:34:56.033Z,8.61
2023-04-25T23:37:59.983Z,8.59
2023-04-25T23:41:03.977Z,8.56
2023-04-25T23:44:08.998Z,8.53
2023-04-25T23:47:14.331Z,8.46
2023-04-25T23:50:18.749Z,8.43
2023-04-25T23:53:22.667Z,8.42
2023-04-25T23:56:26.915Z,8.40
2023-04-25T23:59:31.778Z,8.40
